Aviation Digital Data Service (ADDS)

Output produced by METARs form (0506 UTC 21 January 2019)
found at http://www.aviationweather.gov/metar/data/
 
Forecast for: VLVT (VIENTIANE/WATTAY, LA)
Text: TAF VLVT 202300Z 2100/2124 36004KT 8000 SCT020 FEW200
Forecast period: 0000 UTC 21 January 2019 to 0000 UTC 22 January 2019
Forecast type: FROM: standard forecast or significant change
Winds: from the N (360 degrees) at 5 MPH (4 knots; 2.1 m/s)
Visibility: 5 miles (8 km)
Ceiling: at least 12,000 feet AGL
Clouds: scattered clouds at 2000 feet AGL
few clouds at 20000 feet AGL
Weather: no significant weather forecast for this period
Text: TEMPO 2114/2120 3000 BR FEW050
Forecast period: 1400 to 2000 UTC 21 January 2019
Forecast type: TEMPORARY: The following changes expected for less than half the time period
Visibility: 1.86 miles (2.99 km)
Ceiling: at least 12,000 feet AGL
Clouds: few clouds at 5000 feet AGL
Weather: BR  (mist)